sensor_id;sensor_type;location;lat;lon;timestamp;pressure;altitude;pressure_sealevel;temperature;humidity
35519;BME280;21627;48.216;16.482;2022-08-11T00:01:24;100397.56;;;17.80;64.13
35519;BME280;21627;48.216;16.482;2022-08-11T00:04:00;100406.25;;;17.81;64.39
35519;BME280;21627;48.216;16.482;2022-08-11T00:06:37;100405.38;;;17.79;63.85
35519;BME280;21627;48.216;16.482;2022-08-11T00:09:14;100395.81;;;17.78;64.62
35519;BME280;21627;48.216;16.482;2022-08-11T00:11:47;100401.97;;;17.77;64.63
35519;BME280;21627;48.216;16.482;2022-08-11T00:14:26;100382.91;;;17.68;64.83
35519;BME280;21627;48.216;16.482;2022-08-11T00:17:10;100400.28;;;17.71;65.47
35519;BME280;21627;48.216;16.482;2022-08-11T00:19:43;100402.13;;;17.67;65.33
35519;BME280;21627;48.216;16.482;2022-08-11T00:22:32;100403.00;;;17.66;64.64
35519;BME280;21627;48.216;16.482;2022-08-11T00:25:16;100387.56;;;17.54;65.46
35519;BME280;21627;48.216;16.482;2022-08-11T00:27:45;100396.13;;;17.61;65.94
35519;BME280;21627;48.216;16.482;2022-08-11T00:30:14;100390.97;;;17.58;66.13
35519;BME280;21627;48.216;16.482;2022-08-11T00:32:51;100397.94;;;17.57;66.09
35519;BME280;21627;48.216;16.482;2022-08-11T00:35:26;100392.03;;;17.47;66.33
35519;BME280;21627;48.216;16.482;2022-08-11T00:38:16;100389.44;;;17.46;66.00
35519;BME280;21627;48.216;16.482;2022-08-11T00:41:28;100406.78;;;17.51;66.64
35519;BME280;21627;48.216;16.482;2022-08-11T00:50:19;100399.03;;;17.45;66.05
35519;BME280;21627;48.216;16.482;2022-08-11T00:56:10;100380.09;;;17.31;66.96
35519;BME280;21627;48.216;16.482;2022-08-11T01:03:04;100380.25;;;17.23;67.26
35519;BME280;21627;48.216;16.482;2022-08-11T01:25:47;100386.50;;;17.13;68.48
35519;BME280;21627;48.216;16.482;2022-08-11T01:51:44;100394.84;;;16.84;71.27
35519;BME280;21627;48.216;16.482;2022-08-11T01:54:23;100390.53;;;16.81;71.39
35519;BME280;21627;48.216;16.482;2022-08-11T02:00:17;100371.56;;;16.65;71.40
35519;BME280;21627;48.216;16.482;2022-08-11T02:02:52;100381.06;;;16.71;72.33
35519;BME280;21627;48.216;16.482;2022-08-11T02:08:46;100386.31;;;16.68;73.13
35519;BME280;21627;48.216;16.482;2022-08-11T02:11:29;100382.03;;;16.64;73.66
35519;BME280;21627;48.216;16.482;2022-08-11T02:17:20;100379.50;;;16.61;73.90
35519;BME280;21627;48.216;16.482;2022-08-11T02:20:49;100381.31;;;16.54;73.92
35519;BME280;21627;48.216;16.482;2022-08-11T02:24:02;100378.75;;;16.51;73.89
35519;BME280;21627;48.216;16.482;2022-08-11T02:27:12;100361.50;;;16.41;74.25
35519;BME280;21627;48.216;16.482;2022-08-11T02:30:06;100384.88;;;16.49;74.72
35519;BME280;21627;48.216;16.482;2022-08-11T02:33:31;100385.78;;;16.46;74.54
35519;BME280;21627;48.216;16.482;2022-08-11T02:36:36;100376.38;;;16.34;74.60
35519;BME280;21627;48.216;16.482;2022-08-11T02:39:12;100367.75;;;16.29;74.86
35519;BME280;21627;48.216;16.482;2022-08-11T02:52:14;100377.44;;;16.21;76.52
35519;BME280;21627;48.216;16.482;2022-08-11T02:55:23;100380.91;;;16.20;76.77
35519;BME280;21627;48.216;16.482;2022-08-11T03:01:22;100381.03;;;16.11;77.06
35519;BME280;21627;48.216;16.482;2022-08-11T03:04:22;100387.97;;;16.12;77.24
35519;BME280;21627;48.216;16.482;2022-08-11T03:10:08;100381.94;;;16.08;78.32
35519;BME280;21627;48.216;16.482;2022-08-11T03:12:56;100375.06;;;15.99;78.57
35519;BME280;21627;48.216;16.482;2022-08-11T03:16:17;100374.22;;;16.00;78.83
35519;BME280;21627;48.216;16.482;2022-08-11T03:19:33;100373.41;;;15.95;79.17
35519;BME280;21627;48.216;16.482;2022-08-11T03:31:25;100382.19;;;15.87;77.72
35519;BME280;21627;48.216;16.482;2022-08-11T03:34:22;100384.78;;;15.87;78.31
35519;BME280;21627;48.216;16.482;2022-08-11T03:37:22;100381.31;;;15.86;78.36
35519;BME280;21627;48.216;16.482;2022-08-11T03:40:50;100384.81;;;15.85;79.05
35519;BME280;21627;48.216;16.482;2022-08-11T03:44:09;100375.31;;;15.79;80.36
35519;BME280;21627;48.216;16.482;2022-08-11T03:53:00;100361.50;;;15.68;80.80
35519;BME280;21627;48.216;16.482;2022-08-11T04:14:10;100379.81;;;15.62;84.46
35519;BME280;21627;48.216;16.482;2022-08-11T04:20:18;100376.34;;;15.62;84.45
35519;BME280;21627;48.216;16.482;2022-08-11T04:33:10;100384.13;;;15.66;85.29
35519;BME280;21627;48.216;16.482;2022-08-11T04:39:25;100378.00;;;15.67;85.78
35519;BME280;21627;48.216;16.482;2022-08-11T04:52:27;100386.63;;;15.80;86.33
35519;BME280;21627;48.216;16.482;2022-08-11T05:06:03;100392.56;;;15.91;84.10
35519;BME280;21627;48.216;16.482;2022-08-11T05:18:50;100400.09;;;16.14;80.04
35519;BME280;21627;48.216;16.482;2022-08-11T05:21:41;100384.50;;;16.13;79.20
35519;BME280;21627;48.216;16.482;2022-08-11T05:24:44;100402.63;;;16.23;78.50
35519;BME280;21627;48.216;16.482;2022-08-11T05:27:37;100395.59;;;16.27;77.79
35519;BME280;21627;48.216;16.482;2022-08-11T05:30:31;100396.44;;;16.28;79.03
35519;BME280;21627;48.216;16.482;2022-08-11T05:33:32;100403.31;;;16.36;78.38
35519;BME280;21627;48.216;16.482;2022-08-11T05:36:50;100411.91;;;16.44;78.73
35519;BME280;21627;48.216;16.482;2022-08-11T05:39:27;100415.31;;;16.50;79.87
35519;BME280;21627;48.216;16.482;2022-08-11T05:42:16;100410.03;;;16.56;80.64
35519;BME280;21627;48.216;16.482;2022-08-11T05:45:13;100401.34;;;16.54;80.15
35519;BME280;21627;48.216;16.482;2022-08-11T05:48:20;100394.25;;;16.60;77.10
35519;BME280;21627;48.216;16.482;2022-08-11T05:51:06;100402.81;;;16.70;76.18
35519;BME280;21627;48.216;16.482;2022-08-11T05:53:58;100407.97;;;16.79;75.50
35519;BME280;21627;48.216;16.482;2022-08-11T05:56:59;100391.31;;;16.86;76.42
35519;BME280;21627;48.216;16.482;2022-08-11T05:59:27;100398.06;;;17.00;74.55
35519;BME280;21627;48.216;16.482;2022-08-11T06:02:06;100396.19;;;17.08;75.43
35519;BME280;21627;48.216;16.482;2022-08-11T06:04:34;100388.34;;;17.08;73.95
35519;BME280;21627;48.216;16.482;2022-08-11T06:07:08;100399.56;;;17.16;74.42
35519;BME280;21627;48.216;16.482;2022-08-11T06:09:57;100404.69;;;17.21;72.94
35519;BME280;21627;48.216;16.482;2022-08-11T06:12:31;100408.91;;;17.29;73.01
35519;BME280;21627;48.216;16.482;2022-08-11T06:15:10;100400.09;;;17.34;71.17
35519;BME280;21627;48.216;16.482;2022-08-11T06:17:46;100405.09;;;17.47;72.36
35519;BME280;21627;48.216;16.482;2022-08-11T06:20:15;100404.97;;;17.55;71.82
35519;BME280;21627;48.216;16.482;2022-08-11T06:22:46;100383.25;;;17.50;71.33
35519;BME280;21627;48.216;16.482;2022-08-11T06:25:22;100392.66;;;17.60;70.61
35519;BME280;21627;48.216;16.482;2022-08-11T06:27:56;100406.19;;;17.84;69.06
35519;BME280;21627;48.216;16.482;2022-08-11T06:30:42;100410.41;;;17.91;69.28
35519;BME280;21627;48.216;16.482;2022-08-11T06:33:17;100408.56;;;17.96;69.79
35519;BME280;21627;48.216;16.482;2022-08-11T06:36:09;100406.72;;;18.01;69.65
35519;BME280;21627;48.216;16.482;2022-08-11T06:38:55;100404.84;;;18.09;69.58
35519;BME280;21627;48.216;16.482;2022-08-11T06:41:36;100400.41;;;18.11;68.81
35519;BME280;21627;48.216;16.482;2022-08-11T06:46:51;100397.44;;;18.28;68.04
35519;BME280;21627;48.216;16.482;2022-08-11T06:49:37;100405.03;;;18.41;66.68
35519;BME280;21627;48.216;16.482;2022-08-11T06:52:35;100407.38;;;18.53;66.87
35519;BME280;21627;48.216;16.482;2022-08-11T06:55:12;100402.00;;;18.59;66.00
35519;BME280;21627;48.216;16.482;2022-08-11T06:58:03;100408.81;;;18.68;64.87
35519;BME280;21627;48.216;16.482;2022-08-11T07:00:53;100410.09;;;18.87;63.77
35519;BME280;21627;48.216;16.482;2022-08-11T07:03:24;100390.88;;;18.88;65.36
35519;BME280;21627;48.216;16.482;2022-08-11T07:06:29;100403.59;;;19.05;63.22
35519;BME280;21627;48.216;16.482;2022-08-11T07:12:40;100398.75;;;19.22;64.62
35519;BME280;21627;48.216;16.482;2022-08-11T07:15:32;100396.81;;;19.31;64.55
35519;BME280;21627;48.216;16.482;2022-08-11T07:18:35;100384.28;;;19.42;63.39
35519;BME280;21627;48.216;16.482;2022-08-11T07:21:42;100377.88;;;19.52;63.54
35519;BME280;21627;48.216;16.482;2022-08-11T07:24:58;100386.63;;;19.85;60.98
35519;BME280;21627;48.216;16.482;2022-08-11T07:27:50;100380.16;;;19.99;58.67
35519;BME280;21627;48.216;16.482;2022-08-11T07:30:41;100383.59;;;20.01;59.98
35519;BME280;21627;48.216;16.482;2022-08-11T07:33:10;100372.03;;;20.06;59.43
35519;BME280;21627;48.216;16.482;2022-08-11T07:36:00;100382.75;;;20.28;57.56
35519;BME280;21627;48.216;16.482;2022-08-11T07:38:41;100380.06;;;20.31;58.66
35519;BME280;21627;48.216;16.482;2022-08-11T07:41:15;100387.41;;;20.48;59.27
35519;BME280;21627;48.216;16.482;2022-08-11T07:43:47;100365.84;;;20.39;60.36
35519;BME280;21627;48.216;16.482;2022-08-11T07:46:17;100373.28;;;20.52;59.70
35519;BME280;21627;48.216;16.482;2022-08-11T07:49:06;100380.84;;;20.63;58.10
35519;BME280;21627;48.216;16.482;2022-08-11T07:51:53;100366.50;;;20.73;57.86
35519;BME280;21627;48.216;16.482;2022-08-11T07:54:40;100385.38;;;20.86;57.85
35519;BME280;21627;48.216;16.482;2022-08-11T07:57:08;100365.69;;;21.00;55.12
35519;BME280;21627;48.216;16.482;2022-08-11T08:00:15;100356.00;;;21.00;55.80
35519;BME280;21627;48.216;16.482;2022-08-11T08:03:01;100359.09;;;21.13;56.79
35519;BME280;21627;48.216;16.482;2022-08-11T08:05:49;100360.38;;;21.26;56.66
35519;BME280;21627;48.216;16.482;2022-08-11T08:08:56;100359.16;;;21.61;52.89
35519;BME280;21627;48.216;16.482;2022-08-11T08:11:43;100354.59;;;21.67;53.65
35519;BME280;21627;48.216;16.482;2022-08-11T08:14:31;100354.28;;;21.76;53.21
35519;BME280;21627;48.216;16.482;2022-08-11T08:17:20;100351.25;;;21.87;50.54
35519;BME280;21627;48.216;16.482;2022-08-11T08:20:11;100350.06;;;21.95;50.95
35519;BME280;21627;48.216;16.482;2022-08-11T08:22:39;100348.03;;;22.02;51.98
35519;BME280;21627;48.216;16.482;2022-08-11T08:25:11;100353.81;;;22.12;51.79
35519;BME280;21627;48.216;16.482;2022-08-11T08:27:39;100343.00;;;22.19;51.69
35519;BME280;21627;48.216;16.482;2022-08-11T08:30:10;100350.31;;;22.35;51.55
35519;BME280;21627;48.216;16.482;2022-08-11T08:32:57;100355.19;;;22.45;50.56
35519;BME280;21627;48.216;16.482;2022-08-11T08:35:27;100347.19;;;22.69;49.54
35519;BME280;21627;48.216;16.482;2022-08-11T08:37:59;100353.63;;;22.84;48.73
35519;BME280;21627;48.216;16.482;2022-08-11T08:40:27;100344.56;;;22.91;50.61
35519;BME280;21627;48.216;16.482;2022-08-11T08:43:07;100339.66;;;23.04;49.01
35519;BME280;21627;48.216;16.482;2022-08-11T08:45:36;100341.53;;;23.21;47.27
35519;BME280;21627;48.216;16.482;2022-08-11T08:48:13;100327.13;;;23.29;47.30
35519;BME280;21627;48.216;16.482;2022-08-11T08:50:53;100331.59;;;23.27;45.58
35519;BME280;21627;48.216;16.482;2022-08-11T08:53:49;100333.84;;;23.37;48.15
35519;BME280;21627;48.216;16.482;2022-08-11T08:56:27;100325.31;;;23.50;46.37
35519;BME280;21627;48.216;16.482;2022-08-11T08:58:57;100326.56;;;23.62;46.22
35519;BME280;21627;48.216;16.482;2022-08-11T09:01:36;100322.72;;;23.69;46.14
35519;BME280;21627;48.216;16.482;2022-08-11T09:04:06;100325.59;;;23.84;45.39
35519;BME280;21627;48.216;16.482;2022-08-11T09:06:42;100319.84;;;23.94;44.99
35519;BME280;21627;48.216;16.482;2022-08-11T09:09:14;100328.75;;;24.11;44.15
35519;BME280;21627;48.216;16.482;2022-08-11T09:11:43;100320.66;;;24.33;43.13
35519;BME280;21627;48.216;16.482;2022-08-11T09:14:22;100312.75;;;24.33;43.61
35519;BME280;21627;48.216;16.482;2022-08-11T09:16:51;100310.50;;;24.43;42.76
35519;BME280;21627;48.216;16.482;2022-08-11T09:19:20;100307.22;;;24.56;41.16
35519;BME280;21627;48.216;16.482;2022-08-11T09:21:49;100314.38;;;24.72;41.48
35519;BME280;21627;48.216;16.482;2022-08-11T09:24:36;100308.47;;;24.84;43.62
35519;BME280;21627;48.216;16.482;2022-08-11T09:27:23;100306.47;;;24.89;41.19
35519;BME280;21627;48.216;16.482;2022-08-11T09:29:51;100295.44;;;24.98;40.68
35519;BME280;21627;48.216;16.482;2022-08-11T09:32:23;100304.16;;;25.18;39.59
35519;BME280;21627;48.216;16.482;2022-08-11T09:34:51;100299.94;;;25.31;40.27
35519;BME280;21627;48.216;16.482;2022-08-11T09:37:22;100294.41;;;25.36;39.64
35519;BME280;21627;48.216;16.482;2022-08-11T09:40:23;100281.59;;;25.44;39.44
35519;BME280;21627;48.216;16.482;2022-08-11T09:43:00;100288.72;;;25.59;39.02
35519;BME280;21627;48.216;16.482;2022-08-11T09:45:48;100286.44;;;25.69;38.28
35519;BME280;21627;48.216;16.482;2022-08-11T09:48:24;100279.09;;;25.74;38.44
35519;BME280;21627;48.216;16.482;2022-08-11T09:50:55;100282.19;;;25.82;38.20
35519;BME280;21627;48.216;16.482;2022-08-11T09:53:25;100288.22;;;26.02;38.19
35519;BME280;21627;48.216;16.482;2022-08-11T09:56:15;100293.69;;;26.15;36.88
35519;BME280;21627;48.216;16.482;2022-08-11T09:59:03;100294.63;;;26.29;36.60
35519;BME280;21627;48.216;16.482;2022-08-11T10:01:48;100285.47;;;26.19;36.56
35519;BME280;21627;48.216;16.482;2022-08-11T10:04:41;100288.63;;;26.10;36.40
35519;BME280;21627;48.216;16.482;2022-08-11T10:07:09;100289.91;;;25.87;36.00
35519;BME280;21627;48.216;16.482;2022-08-11T10:09:52;100297.44;;;25.95;35.24
35519;BME280;21627;48.216;16.482;2022-08-11T10:12:31;100296.75;;;26.07;36.49
35519;BME280;21627;48.216;16.482;2022-08-11T10:15:08;100289.91;;;25.87;36.55
35519;BME280;21627;48.216;16.482;2022-08-11T10:18:04;100285.47;;;25.87;35.17
35519;BME280;21627;48.216;16.482;2022-08-11T10:20:56;100283.34;;;26.10;35.60
35519;BME280;21627;48.216;16.482;2022-08-11T10:23:28;100279.31;;;26.19;37.07
35519;BME280;21627;48.216;16.482;2022-08-11T10:26:32;100278.19;;;26.23;35.79
35519;BME280;21627;48.216;16.482;2022-08-11T10:29:27;100267.94;;;26.17;37.04
35519;BME280;21627;48.216;16.482;2022-08-11T10:32:27;100274.03;;;26.19;36.02
35519;BME280;21627;48.216;16.482;2022-08-11T10:35:27;100265.81;;;26.07;36.34
35519;BME280;21627;48.216;16.482;2022-08-11T10:37:56;100261.72;;;26.02;36.75
35519;BME280;21627;48.216;16.482;2022-08-11T10:40:39;100247.69;;;26.00;36.75
35519;BME280;21627;48.216;16.482;2022-08-11T10:43:07;100251.09;;;26.18;35.92
35519;BME280;21627;48.216;16.482;2022-08-11T10:46:01;100247.53;;;26.49;35.48
35519;BME280;21627;48.216;16.482;2022-08-11T10:48:57;100243.75;;;26.69;34.17
35519;BME280;21627;48.216;16.482;2022-08-11T10:51:27;100246.53;;;26.82;34.63
35519;BME280;21627;48.216;16.482;2022-08-11T10:54:20;100226.97;;;26.68;35.25
35519;BME280;21627;48.216;16.482;2022-08-11T10:57:08;100240.34;;;26.67;35.05
35519;BME280;21627;48.216;16.482;2022-08-11T10:59:55;100248.19;;;26.68;34.68
35519;BME280;21627;48.216;16.482;2022-08-11T11:02:23;100236.56;;;26.85;34.71
35519;BME280;21627;48.216;16.482;2022-08-11T11:08:00;100234.91;;;27.13;34.50
35519;BME280;21627;48.216;16.482;2022-08-11T11:10:53;100235.78;;;27.28;33.04
35519;BME280;21627;48.216;16.482;2022-08-11T11:13:21;100241.38;;;27.23;34.28
35519;BME280;21627;48.216;16.482;2022-08-11T11:16:22;100237.44;;;27.00;34.13
35519;BME280;21627;48.216;16.482;2022-08-11T11:19:10;100226.50;;;26.76;33.22
35519;BME280;21627;48.216;16.482;2022-08-11T11:21:39;100235.03;;;26.51;33.41
35519;BME280;21627;48.216;16.482;2022-08-11T11:27:25;100231.91;;;26.44;35.34
35519;BME280;21627;48.216;16.482;2022-08-11T11:30:09;100230.00;;;26.62;34.81
35519;BME280;21627;48.216;16.482;2022-08-11T11:39:09;100226.97;;;27.27;33.96
35519;BME280;21627;48.216;16.482;2022-08-11T11:41:37;100209.44;;;27.25;32.26
35519;BME280;21627;48.216;16.482;2022-08-11T11:44:05;100207.34;;;27.30;32.57
35519;BME280;21627;48.216;16.482;2022-08-11T11:46:34;100202.88;;;27.45;31.79
35519;BME280;21627;48.216;16.482;2022-08-11T11:49:05;100201.84;;;27.47;31.29
35519;BME280;21627;48.216;16.482;2022-08-11T11:51:45;100204.50;;;27.47;31.64
35519;BME280;21627;48.216;16.482;2022-08-11T11:54:18;100206.47;;;27.15;32.53
35519;BME280;21627;48.216;16.482;2022-08-11T11:56:47;100214.22;;;27.04;32.40
35519;BME280;21627;48.216;16.482;2022-08-11T11:59:14;100201.41;;;26.96;32.92
35519;BME280;21627;48.216;16.482;2022-08-11T12:02:02;100201.81;;;26.90;33.76
35519;BME280;21627;48.216;16.482;2022-08-11T12:04:41;100191.00;;;26.93;32.68
35519;BME280;21627;48.216;16.482;2022-08-11T12:07:10;100189.31;;;26.92;33.11
35519;BME280;21627;48.216;16.482;2022-08-11T12:09:57;100185.88;;;26.90;33.14
35519;BME280;21627;48.216;16.482;2022-08-11T12:12:25;100184.28;;;26.87;32.11
35519;BME280;21627;48.216;16.482;2022-08-11T12:15:12;100172.03;;;26.70;30.63
35519;BME280;21627;48.216;16.482;2022-08-11T12:17:39;100180.94;;;26.84;31.23
35519;BME280;21627;48.216;16.482;2022-08-11T12:20:08;100178.50;;;27.09;30.99
35519;BME280;21627;48.216;16.482;2022-08-11T12:22:55;100174.03;;;27.10;31.78
35519;BME280;21627;48.216;16.482;2022-08-11T12:25:43;100166.53;;;27.16;30.33
35519;BME280;21627;48.216;16.482;2022-08-11T12:28:50;100149.75;;;27.16;29.21
35519;BME280;21627;48.216;16.482;2022-08-11T12:31:17;100152.16;;;27.21;29.97
35519;BME280;21627;48.216;16.482;2022-08-11T12:33:47;100158.56;;;27.16;29.08
35519;BME280;21627;48.216;16.482;2022-08-11T12:36:17;100142.59;;;27.18;28.69
35519;BME280;21627;48.216;16.482;2022-08-11T12:38:47;100154.75;;;27.49;30.55
35519;BME280;21627;48.216;16.482;2022-08-11T12:41:19;100147.22;;;27.85;30.44
35519;BME280;21627;48.216;16.482;2022-08-11T12:44:08;100131.97;;;28.14;29.33
35519;BME280;21627;48.216;16.482;2022-08-11T12:46:58;100120.31;;;28.29;28.41
35519;BME280;21627;48.216;16.482;2022-08-11T12:49:27;100113.75;;;28.47;27.24
35519;BME280;21627;48.216;16.482;2022-08-11T12:52:24;100122.69;;;28.46;29.73
35519;BME280;21627;48.216;16.482;2022-08-11T12:57:33;100118.19;;;28.34;27.52
35519;BME280;21627;48.216;16.482;2022-08-11T13:00:21;100115.09;;;28.27;27.44
35519;BME280;21627;48.216;16.482;2022-08-11T13:03:10;100102.41;;;28.05;27.76
35519;BME280;21627;48.216;16.482;2022-08-11T13:06:00;100116.75;;;28.03;29.19
35519;BME280;21627;48.216;16.482;2022-08-11T13:08:34;100105.56;;;27.85;29.25
35519;BME280;21627;48.216;16.482;2022-08-11T13:11:03;100099.91;;;27.62;28.76
35519;BME280;21627;48.216;16.482;2022-08-11T13:13:50;100111.50;;;27.89;31.34
35519;BME280;21627;48.216;16.482;2022-08-11T13:16:34;100110.06;;;27.97;29.51
35519;BME280;21627;48.216;16.482;2022-08-11T13:19:22;100105.16;;;28.04;30.02
35519;BME280;21627;48.216;16.482;2022-08-11T13:21:50;100089.88;;;28.08;30.83
35519;BME280;21627;48.216;16.482;2022-08-11T13:24:19;100108.25;;;28.11;30.70
35519;BME280;21627;48.216;16.482;2022-08-11T13:26:49;100100.16;;;27.99;31.70
35519;BME280;21627;48.216;16.482;2022-08-11T13:29:21;100100.31;;;27.83;32.23
35519;BME280;21627;48.216;16.482;2022-08-11T13:31:51;100097.69;;;27.69;32.00
35519;BME280;21627;48.216;16.482;2022-08-11T13:34:21;100095.47;;;27.49;31.87
35519;BME280;21627;48.216;16.482;2022-08-11T13:37:01;100103.44;;;27.22;32.57
35519;BME280;21627;48.216;16.482;2022-08-11T13:39:32;100099.81;;;27.08;30.54
35519;BME280;21627;48.216;16.482;2022-08-11T13:42:02;100088.06;;;26.84;32.35
35519;BME280;21627;48.216;16.482;2022-08-11T13:44:34;100090.56;;;26.87;31.77
35519;BME280;21627;48.216;16.482;2022-08-11T13:47:04;100091.50;;;26.71;33.01
35519;BME280;21627;48.216;16.482;2022-08-11T13:49:36;100080.34;;;26.66;33.30
35519;BME280;21627;48.216;16.482;2022-08-11T13:52:12;100086.56;;;26.65;34.23
35519;BME280;21627;48.216;16.482;2022-08-11T13:54:41;100088.09;;;26.69;34.78
35519;BME280;21627;48.216;16.482;2022-08-11T13:57:11;100077.28;;;26.72;34.75
35519;BME280;21627;48.216;16.482;2022-08-11T13:59:59;100073.47;;;26.91;34.57
35519;BME280;21627;48.216;16.482;2022-08-11T14:02:53;100080.72;;;27.16;34.22
35519;BME280;21627;48.216;16.482;2022-08-11T14:05:38;100076.56;;;27.26;35.62
35519;BME280;21627;48.216;16.482;2022-08-11T14:08:15;100075.16;;;27.35;32.98
35519;BME280;21627;48.216;16.482;2022-08-11T14:11:06;100071.25;;;27.26;33.58
35519;BME280;21627;48.216;16.482;2022-08-11T14:14:20;100069.19;;;27.17;33.62
35519;BME280;21627;48.216;16.482;2022-08-11T14:16:50;100065.31;;;27.08;35.68
35519;BME280;21627;48.216;16.482;2022-08-11T14:19:24;100067.59;;;27.00;35.11
35519;BME280;21627;48.216;16.482;2022-08-11T14:21:53;100055.22;;;26.86;34.73
35519;BME280;21627;48.216;16.482;2022-08-11T14:24:40;100066.75;;;26.71;34.43
35519;BME280;21627;48.216;16.482;2022-08-11T14:27:11;100065.34;;;26.65;33.87
35519;BME280;21627;48.216;16.482;2022-08-11T14:29:59;100065.06;;;26.55;37.12
35519;BME280;21627;48.216;16.482;2022-08-11T14:32:27;100055.16;;;26.43;33.95
35519;BME280;21627;48.216;16.482;2022-08-11T14:34:55;100057.25;;;26.38;34.08
35519;BME280;21627;48.216;16.482;2022-08-11T14:37:26;100051.47;;;26.31;35.13
35519;BME280;21627;48.216;16.482;2022-08-11T14:39:57;100061.13;;;26.32;37.33
35519;BME280;21627;48.216;16.482;2022-08-11T14:42:31;100063.78;;;26.32;36.87
35519;BME280;21627;48.216;16.482;2022-08-11T14:45:17;100055.56;;;26.37;34.83
35519;BME280;21627;48.216;16.482;2022-08-11T14:48:23;100064.47;;;26.36;36.19
35519;BME280;21627;48.216;16.482;2022-08-11T14:50:52;100063.88;;;26.31;34.86
35519;BME280;21627;48.216;16.482;2022-08-11T14:53:24;100070.38;;;26.25;35.98
35519;BME280;21627;48.216;16.482;2022-08-11T14:55:51;100072.47;;;26.20;35.28
35519;BME280;21627;48.216;16.482;2022-08-11T14:58:38;100077.38;;;26.12;34.96
35519;BME280;21627;48.216;16.482;2022-08-11T15:01:06;100069.31;;;25.99;34.81
35519;BME280;21627;48.216;16.482;2022-08-11T15:03:55;100064.78;;;25.85;36.70
35519;BME280;21627;48.216;16.482;2022-08-11T15:06:44;100060.38;;;25.70;37.80
35519;BME280;21627;48.216;16.482;2022-08-11T15:09:12;100057.06;;;25.66;36.81
35519;BME280;21627;48.216;16.482;2022-08-11T15:11:44;100061.00;;;25.59;36.02
35519;BME280;21627;48.216;16.482;2022-08-11T15:14:30;100056.84;;;25.55;36.25
35519;BME280;21627;48.216;16.482;2022-08-11T15:17:22;100049.59;;;25.43;36.12
35519;BME280;21627;48.216;16.482;2022-08-11T15:20:16;100046.06;;;25.42;36.68
35519;BME280;21627;48.216;16.482;2022-08-11T15:23:02;100053.16;;;25.42;38.21
35519;BME280;21627;48.216;16.482;2022-08-11T15:26:13;100050.03;;;25.35;38.04
35519;BME280;21627;48.216;16.482;2022-08-11T15:28:49;100046.78;;;25.30;36.84
35519;BME280;21627;48.216;16.482;2022-08-11T15:31:36;100035.69;;;25.23;36.23
35519;BME280;21627;48.216;16.482;2022-08-11T15:34:28;100047.03;;;25.25;37.36
35519;BME280;21627;48.216;16.482;2022-08-11T15:37:15;100029.16;;;25.13;37.62
35519;BME280;21627;48.216;16.482;2022-08-11T15:40:09;100035.31;;;25.14;37.43
35519;BME280;21627;48.216;16.482;2022-08-11T15:45:54;100034.53;;;25.12;37.12
35519;BME280;21627;48.216;16.482;2022-08-11T15:51:19;100031.09;;;25.10;37.42
35519;BME280;21627;48.216;16.482;2022-08-11T15:53:53;100030.19;;;25.11;36.99
35519;BME280;21627;48.216;16.482;2022-08-11T15:56:26;100032.84;;;25.11;37.07
35519;BME280;21627;48.216;16.482;2022-08-11T15:58:57;100022.69;;;25.03;36.25
35519;BME280;21627;48.216;16.482;2022-08-11T16:02:04;100027.97;;;25.03;37.28
35519;BME280;21627;48.216;16.482;2022-08-11T16:04:52;100018.84;;;24.93;38.19
35519;BME280;21627;48.216;16.482;2022-08-11T16:07:23;100022.41;;;24.92;42.57
35519;BME280;21627;48.216;16.482;2022-08-11T16:10:00;100020.63;;;24.92;39.45
35519;BME280;21627;48.216;16.482;2022-08-11T16:15:06;100035.44;;;24.79;40.33
35519;BME280;21627;48.216;16.482;2022-08-11T16:18:04;100025.53;;;24.67;42.21
35519;BME280;21627;48.216;16.482;2022-08-11T16:20:33;100029.66;;;24.72;43.86
35519;BME280;21627;48.216;16.482;2022-08-11T16:23:04;100019.81;;;24.74;40.83
35519;BME280;21627;48.216;16.482;2022-08-11T16:25:34;100014.22;;;24.65;40.03
35519;BME280;21627;48.216;16.482;2022-08-11T16:28:22;100029.13;;;24.66;39.40
35519;BME280;21627;48.216;16.482;2022-08-11T16:30:51;100024.41;;;24.55;40.31
35519;BME280;21627;48.216;16.482;2022-08-11T16:33:22;100008.03;;;24.48;40.51
35519;BME280;21627;48.216;16.482;2022-08-11T16:36:11;100016.94;;;24.63;39.68
35519;BME280;21627;48.216;16.482;2022-08-11T16:38:59;100003.50;;;24.50;40.96
35519;BME280;21627;48.216;16.482;2022-08-11T16:41:31;100030.13;;;24.47;40.87
35519;BME280;21627;48.216;16.482;2022-08-11T16:44:19;100025.63;;;24.32;40.00
35519;BME280;21627;48.216;16.482;2022-08-11T16:47:10;100031.03;;;24.29;41.36
35519;BME280;21627;48.216;16.482;2022-08-11T16:49:46;100023.09;;;24.29;41.15
35519;BME280;21627;48.216;16.482;2022-08-11T16:52:20;100017.38;;;24.21;41.94
35519;BME280;21627;48.216;16.482;2022-08-11T16:54:49;100022.84;;;24.17;41.76
35519;BME280;21627;48.216;16.482;2022-08-11T16:57:26;100019.81;;;24.08;41.44
35519;BME280;21627;48.216;16.482;2022-08-11T17:00:15;100017.22;;;24.06;43.43
35519;BME280;21627;48.216;16.482;2022-08-11T17:02:50;100019.25;;;24.01;42.34
35519;BME280;21627;48.216;16.482;2022-08-11T17:05:43;100005.03;;;23.86;41.72
35519;BME280;21627;48.216;16.482;2022-08-11T17:08:42;100014.06;;;23.82;40.23
35519;BME280;21627;48.216;16.482;2022-08-11T17:11:31;100019.66;;;23.76;41.08
35519;BME280;21627;48.216;16.482;2022-08-11T17:14:34;100025.81;;;23.77;40.99